Here is the Quick Look data you requested

The Data originates at the National Weather Service, and is made available here by the UAlbany Department of Atmospheric and Environmental Sciences

Surface Observations

KBDL 261451Z 18011KT 9SM -RA FEW008 BKN016 OVC040 24/22 A2998 RMK AO2 RAB46
 SLP153 P0000 60000 T02390222 58013=
KBDR 261452Z 19009KT 10SM BKN022 OVC027 24/23 A3000 RMK AO2 SLP160 T02390228
 58008=
KDXR 261453Z 20008G16KT 10SM OVC013 24/22 A3001 RMK AO2 SLP158 T02390217 58012=
KGON 261456Z 16010KT 3SM BR OVC004 22/22 A3002 RMK AO2 SLP166 60000 T02220217
 58009=
KHFD 261453Z 17007KT 4SM BR BKN006 OVC010 23/22 A2999 RMK AO2 RAB39E53 CIG
 005V009 SLP155 P0000 60000 T02280222 58009=
KHVN 261453Z 19007KT 10SM BKN003 BKN013 OVC020 24/23 A3001 RMK AO2 SLP163 60000
 T02390233 58006 $=
KIJD 261452Z AUTO 19010KT 6SM BR OVC006 23/23 A3002 RMK AO2 CIG 005V010 SLP162
 60000 T02280228 58008=
KMMK 261453Z AUTO 17008KT 9SM OVC007 23/22 A3000 RMK AO2 RAB23E39 CIG 005V009
 SLP157 P0000 60000 T02330222 58010=
KOXC 261451Z 18008KT 9SM OVC005 22/22 A3002 RMK AO2 CIG 003V009 SLP174
 T02220217 58011=